createdAt,value
2022-10-02T00:01:18.401Z,100.00
2022-10-02T00:03:47.004Z,100.00
2022-10-02T00:06:21.859Z,100.00
2022-10-02T00:08:57.699Z,100.00
2022-10-02T00:11:29.258Z,100.00
2022-10-02T00:14:01.212Z,100.00
2022-10-02T00:16:34.003Z,100.00
2022-10-02T00:19:02.128Z,100.00
2022-10-02T00:21:41.876Z,100.00
2022-10-02T00:24:16.003Z,100.00
2022-10-02T00:26:52.689Z,100.00
2022-10-02T00:29:36.334Z,100.00
2022-10-02T00:32:17.724Z,100.00
2022-10-02T00:34:57.875Z,100.00
2022-10-02T00:37:36.880Z,100.00
2022-10-02T00:40:26.213Z,100.00
2022-10-02T00:43:06.055Z,100.00
2022-10-02T00:45:47.677Z,100.00
2022-10-02T00:48:34.254Z,100.00
2022-10-02T00:51:15.476Z,100.00
2022-10-02T00:53:55.182Z,100.00
2022-10-02T00:56:33.793Z,100.00
2022-10-02T00:59:39.259Z,100.00
2022-10-02T01:02:12.689Z,100.00
2022-10-02T01:04:41.322Z,100.00
2022-10-02T01:07:12.433Z,100.00
2022-10-02T01:09:40.903Z,100.00
2022-10-02T01:12:10.605Z,100.00
2022-10-02T01:14:39.804Z,100.00
2022-10-02T01:17:20.866Z,100.00
2022-10-02T01:19:48.558Z,100.00
2022-10-02T01:22:22.190Z,100.00
2022-10-02T01:24:51.872Z,100.00
2022-10-02T01:27:19.800Z,100.00
2022-10-02T01:29:49.783Z,100.00
2022-10-02T01:32:17.962Z,100.00
2022-10-02T01:34:46.832Z,100.00
2022-10-02T01:37:14.547Z,100.00
2022-10-02T01:39:42.388Z,100.00
2022-10-02T01:42:11.520Z,100.00
2022-10-02T01:44:39.215Z,100.00
2022-10-02T01:47:10.474Z,100.00
2022-10-02T01:49:50.265Z,100.00
2022-10-02T01:52:28.082Z,100.00
2022-10-02T01:55:10.244Z,100.00
2022-10-02T01:57:47.821Z,100.00
2022-10-02T02:00:17.995Z,100.00
2022-10-02T02:02:55.223Z,100.00
2022-10-02T02:05:34.337Z,100.00
2022-10-02T02:08:09.030Z,100.00
2022-10-02T02:10:50.899Z,100.00
2022-10-02T02:13:27.823Z,100.00
2022-10-02T02:16:02.815Z,100.00
2022-10-02T02:18:36.575Z,100.00
2022-10-02T02:21:09.920Z,100.00
2022-10-02T02:23:38.899Z,100.00
2022-10-02T02:26:12.390Z,100.00
2022-10-02T02:28:45.652Z,100.00
2022-10-02T02:31:16.809Z,100.00
2022-10-02T02:33:48.906Z,100.00
2022-10-02T02:36:19.488Z,100.00
2022-10-02T02:38:50.133Z,100.00
2022-10-02T02:41:24.864Z,100.00
2022-10-02T02:43:59.619Z,100.00
2022-10-02T02:46:34.930Z,100.00
2022-10-02T02:49:09.666Z,100.00
2022-10-02T02:51:41.951Z,100.00
2022-10-02T02:54:15.489Z,100.00
2022-10-02T02:56:45.232Z,100.00
2022-10-02T02:59:15.911Z,100.00
2022-10-02T03:01:43.798Z,100.00
2022-10-02T03:04:13.585Z,100.00
2022-10-02T03:06:43.730Z,100.00
2022-10-02T03:09:14.419Z,100.00
2022-10-02T03:11:50.667Z,100.00
2022-10-02T03:14:53.655Z,100.00
2022-10-02T03:17:33.116Z,100.00
2022-10-02T03:20:11.520Z,100.00
2022-10-02T03:22:46.591Z,100.00
2022-10-02T03:25:20.061Z,100.00
2022-10-02T03:27:53.005Z,100.00
2022-10-02T03:30:24.156Z,100.00
2022-10-02T03:32:53.593Z,100.00
2022-10-02T03:35:23.500Z,100.00
2022-10-02T03:37:54.671Z,100.00
2022-10-02T03:40:24.123Z,100.00
2022-10-02T03:42:52.349Z,100.00
2022-10-02T03:45:46.242Z,100.00
2022-10-02T03:48:09.055Z,100.00
2022-10-02T03:50:36.758Z,100.00
2022-10-02T03:53:12.031Z,100.00
2022-10-02T03:55:41.980Z,100.00
2022-10-02T03:58:14.241Z,100.00
2022-10-02T04:00:47.741Z,100.00
2022-10-02T04:03:21.261Z,100.00
2022-10-02T04:05:52.602Z,100.00
2022-10-02T04:08:25.790Z,100.00
2022-10-02T04:11:00.415Z,100.00
2022-10-02T04:13:32.845Z,100.00
2022-10-02T04:16:11.029Z,100.00
2022-10-02T04:18:46.215Z,100.00
2022-10-02T04:21:22.201Z,100.00
2022-10-02T04:23:53.793Z,100.00
2022-10-02T04:26:27.467Z,100.00
2022-10-02T04:28:59.218Z,100.00
2022-10-02T04:31:28.379Z,100.00
2022-10-02T04:34:02.643Z,100.00
2022-10-02T04:36:41.908Z,100.00
2022-10-02T04:39:52.915Z,100.00
2022-10-02T04:42:30.341Z,100.00
2022-10-02T04:45:18.185Z,100.00
2022-10-02T04:48:12.691Z,100.00
2022-10-02T04:50:49.266Z,100.00
2022-10-02T04:53:29.197Z,100.00
2022-10-02T04:56:13.448Z,100.00
2022-10-02T04:58:56.605Z,100.00
2022-10-02T05:01:38.874Z,100.00
2022-10-02T05:04:33.821Z,100.00
2022-10-02T05:07:24.576Z,100.00
2022-10-02T05:10:01.724Z,100.00
2022-10-02T05:12:53.839Z,100.00
2022-10-02T05:15:36.860Z,100.00
2022-10-02T05:18:18.856Z,100.00
2022-10-02T05:21:10.156Z,100.00
2022-10-02T05:23:51.016Z,100.00
2022-10-02T05:26:33.927Z,100.00
2022-10-02T05:29:17.944Z,100.00
2022-10-02T05:32:02.359Z,100.00
2022-10-02T05:34:44.959Z,100.00
2022-10-02T05:37:28.006Z,100.00
2022-10-02T05:40:03.734Z,100.00
2022-10-02T05:42:40.032Z,100.00
2022-10-02T05:45:23.228Z,100.00
2022-10-02T05:47:54.039Z,100.00
2022-10-02T05:50:28.230Z,100.00
2022-10-02T05:53:00.341Z,100.00
2022-10-02T05:55:36.556Z,100.00
2022-10-02T05:58:08.125Z,100.00
2022-10-02T06:00:42.401Z,100.00
2022-10-02T06:03:16.343Z,100.00
2022-10-02T06:05:55.051Z,100.00
2022-10-02T06:08:31.444Z,100.00
2022-10-02T06:11:07.804Z,100.00
2022-10-02T06:13:41.634Z,100.00
2022-10-02T06:16:13.789Z,100.00
2022-10-02T06:18:49.043Z,100.00
2022-10-02T06:21:27.166Z,100.00
2022-10-02T06:23:59.155Z,100.00
2022-10-02T06:26:31.758Z,100.00
2022-10-02T06:29:03.140Z,100.00
2022-10-02T06:31:39.076Z,100.00
2022-10-02T06:34:11.509Z,100.00
2022-10-02T06:37:06.838Z,100.00
2022-10-02T06:39:46.976Z,100.00
2022-10-02T06:42:25.548Z,100.00
2022-10-02T06:45:01.471Z,100.00
2022-10-02T06:47:43.618Z,100.00
2022-10-02T06:50:28.224Z,100.00
2022-10-02T06:53:05.944Z,100.00
2022-10-02T06:55:44.828Z,100.00
2022-10-02T06:58:41.171Z,100.00
2022-10-02T07:01:19.952Z,100.00
2022-10-02T07:04:11.500Z,100.00
2022-10-02T07:07:06.967Z,100.00
2022-10-02T07:10:04.944Z,100.00
2022-10-02T07:12:48.800Z,100.00
2022-10-02T07:15:41.772Z,100.00
2022-10-02T07:18:21.675Z,100.00
2022-10-02T07:20:59.835Z,100.00
2022-10-02T07:23:41.941Z,100.00
2022-10-02T07:26:20.426Z,100.00
2022-10-02T07:28:59.170Z,100.00
2022-10-02T07:31:35.392Z,100.00
2022-10-02T07:34:18.883Z,100.00
2022-10-02T07:36:56.472Z,100.00
2022-10-02T07:39:37.074Z,100.00
2022-10-02T07:42:24.264Z,100.00
2022-10-02T07:45:10.053Z,100.00
2022-10-02T07:47:57.064Z,100.00
2022-10-02T07:50:34.632Z,100.00
2022-10-02T07:53:10.671Z,100.00
2022-10-02T07:55:42.202Z,100.00
2022-10-02T07:58:14.571Z,100.00
2022-10-02T08:00:48.742Z,100.00
2022-10-02T08:03:21.012Z,100.00
2022-10-02T08:05:52.391Z,100.00
2022-10-02T08:08:25.154Z,100.00
2022-10-02T08:10:56.144Z,100.00
2022-10-02T08:13:29.633Z,100.00
2022-10-02T08:15:57.285Z,100.00
2022-10-02T08:18:35.908Z,100.00
2022-10-02T08:21:09.570Z,100.00
2022-10-02T08:23:43.898Z,100.00
2022-10-02T08:26:18.377Z,100.00
2022-10-02T08:28:53.444Z,100.00
2022-10-02T08:31:21.054Z,100.00
2022-10-02T08:33:50.226Z,100.00
2022-10-02T08:36:51.093Z,100.00
2022-10-02T08:39:47.558Z,100.00
2022-10-02T08:42:51.039Z,100.00
2022-10-02T08:45:55.143Z,100.00
2022-10-02T08:48:56.408Z,100.00
2022-10-02T08:52:07.338Z,100.00
2022-10-02T08:54:59.773Z,100.00
2022-10-02T08:57:48.916Z,100.00
2022-10-02T09:00:25.918Z,100.00
2022-10-02T09:03:30.798Z,100.00
2022-10-02T09:06:21.307Z,100.00
2022-10-02T09:09:10.677Z,100.00
2022-10-02T09:12:06.952Z,100.00
2022-10-02T09:14:45.948Z,100.00
2022-10-02T09:17:24.919Z,100.00
2022-10-02T09:20:12.917Z,100.00
2022-10-02T09:23:11.352Z,100.00
2022-10-02T09:25:53.813Z,100.00
2022-10-02T09:28:46.225Z,100.00
2022-10-02T09:31:40.175Z,100.00
2022-10-02T09:34:40.413Z,100.00
2022-10-02T09:37:38.640Z,100.00
2022-10-02T09:40:43.642Z,100.00
2022-10-02T09:43:52.813Z,100.00
2022-10-02T09:47:04.797Z,100.00
2022-10-02T09:49:57.550Z,100.00
2022-10-02T09:52:53.368Z,100.00
2022-10-02T09:55:52.636Z,100.00
2022-10-02T09:59:01.070Z,100.00
2022-10-02T10:01:48.511Z,100.00
2022-10-02T10:05:05.101Z,100.00
2022-10-02T10:08:16.647Z,100.00
2022-10-02T10:11:16.218Z,100.00
2022-10-02T10:14:12.780Z,100.00
2022-10-02T10:17:19.244Z,100.00
2022-10-02T10:20:22.900Z,100.00
2022-10-02T10:23:14.383Z,100.00
2022-10-02T10:25:57.728Z,100.00
2022-10-02T10:29:08.967Z,100.00
2022-10-02T10:32:30.937Z,100.00
2022-10-02T10:35:24.165Z,100.00
2022-10-02T10:38:15.171Z,100.00
2022-10-02T10:41:05.462Z,100.00
2022-10-02T10:43:51.350Z,100.00
2022-10-02T10:46:41.072Z,100.00
2022-10-02T10:49:44.182Z,100.00
2022-10-02T10:52:30.085Z,100.00
2022-10-02T10:55:18.831Z,100.00
2022-10-02T10:57:56.230Z,100.00
2022-10-02T11:00:26.432Z,100.00
2022-10-02T11:03:15.003Z,100.00
2022-10-02T11:06:22.761Z,100.00
2022-10-02T11:09:32.504Z,100.00
2022-10-02T11:12:24.510Z,99.04
2022-10-02T11:15:06.122Z,95.59
2022-10-02T11:17:56.362Z,95.24
2022-10-02T11:20:56.911Z,95.24
2022-10-02T11:23:40.666Z,95.15
2022-10-02T11:26:23.815Z,95.85
2022-10-02T11:29:42.166Z,96.06
2022-10-02T11:33:00.513Z,97.63
2022-10-02T11:35:41.248Z,98.41
2022-10-02T11:38:59.920Z,97.54
2022-10-02T11:42:00.082Z,97.51
2022-10-02T11:44:45.818Z,96.47
2022-10-02T11:47:32.290Z,94.39
2022-10-02T11:50:33.095Z,94.66
2022-10-02T11:53:23.274Z,94.28
2022-10-02T11:56:04.415Z,94.05
2022-10-02T11:58:48.485Z,93.65
2022-10-02T12:01:24.693Z,93.70
2022-10-02T12:04:01.654Z,90.79
2022-10-02T12:06:46.200Z,90.47
2022-10-02T12:09:23.758Z,90.13
2022-10-02T12:12:06.698Z,87.46
2022-10-02T12:14:43.636Z,88.91
2022-10-02T12:17:42.214Z,90.68
2022-10-02T12:20:40.073Z,88.15
2022-10-02T12:23:40.063Z,87.87
2022-10-02T12:26:33.741Z,87.40
2022-10-02T12:29:06.980Z,87.23
2022-10-02T12:31:51.103Z,87.64
2022-10-02T12:34:40.806Z,87.54
2022-10-02T12:37:16.341Z,88.16
2022-10-02T12:39:51.423Z,88.19
2022-10-02T12:42:45.583Z,88.41
2022-10-02T12:45:45.018Z,87.14
2022-10-02T12:48:36.015Z,82.67
2022-10-02T12:51:30.434Z,83.29
2022-10-02T12:54:17.823Z,85.56
2022-10-02T12:57:05.827Z,85.25
2022-10-02T12:59:49.474Z,85.35
2022-10-02T13:03:00.970Z,85.74
2022-10-02T13:06:14.554Z,85.79
2022-10-02T13:09:03.461Z,86.27
2022-10-02T13:11:44.393Z,86.27
2022-10-02T13:14:32.466Z,85.64
2022-10-02T13:17:19.474Z,83.97
2022-10-02T13:19:59.228Z,82.02
2022-10-02T13:22:39.730Z,81.48
2022-10-02T13:25:31.914Z,77.98
2022-10-02T13:28:04.554Z,77.38
2022-10-02T13:30:38.325Z,78.44
2022-10-02T13:33:21.540Z,79.27
2022-10-02T13:35:57.878Z,78.91
2022-10-02T13:38:40.612Z,78.89
2022-10-02T13:41:21.696Z,78.10
2022-10-02T13:43:59.904Z,77.79
2022-10-02T13:46:49.512Z,77.16
2022-10-02T13:49:28.391Z,77.59
2022-10-02T13:52:03.392Z,76.77
2022-10-02T13:54:50.015Z,77.45
2022-10-02T13:57:37.037Z,76.73
2022-10-02T14:00:10.554Z,75.85
2022-10-02T14:03:00.135Z,76.21
2022-10-02T14:05:38.074Z,75.71
2022-10-02T14:08:26.630Z,75.62
2022-10-02T14:11:09.327Z,75.31
2022-10-02T14:13:52.932Z,74.64
2022-10-02T14:16:36.360Z,74.51
2022-10-02T14:19:35.202Z,76.26
2022-10-02T14:22:26.180Z,76.31
2022-10-02T14:25:18.594Z,74.62
2022-10-02T14:28:32.962Z,74.36
2022-10-02T14:31:25.602Z,75.14
2022-10-02T14:34:25.972Z,74.45
2022-10-02T14:37:02.828Z,73.50
2022-10-02T14:39:36.660Z,74.39
2022-10-02T14:42:28.500Z,73.60
2022-10-02T14:45:27.579Z,73.14
2022-10-02T14:48:10.497Z,73.65
2022-10-02T14:50:57.670Z,73.41
2022-10-02T14:53:43.820Z,74.43
2022-10-02T14:56:41.909Z,75.80
2022-10-02T14:59:28.487Z,75.95
2022-10-02T15:02:11.806Z,76.30
2022-10-02T15:04:56.059Z,77.00
2022-10-02T15:07:27.719Z,76.99
2022-10-02T15:10:16.120Z,75.89
2022-10-02T15:12:51.007Z,76.01
2022-10-02T15:15:26.342Z,76.29
2022-10-02T15:18:14.810Z,77.14
2022-10-02T15:20:59.311Z,76.64
2022-10-02T15:23:43.436Z,77.64
2022-10-02T15:26:27.030Z,77.69
2022-10-02T15:29:05.935Z,78.49
2022-10-02T15:31:42.042Z,79.21
2022-10-02T15:34:20.052Z,78.97
2022-10-02T15:37:14.281Z,78.72
2022-10-02T15:39:58.198Z,79.07
2022-10-02T15:42:54.028Z,79.18
2022-10-02T15:45:43.848Z,79.47
2022-10-02T15:48:34.917Z,79.39
2022-10-02T15:51:11.794Z,79.42
2022-10-02T15:53:52.375Z,79.60
2022-10-02T15:56:36.756Z,80.08
2022-10-02T15:59:21.728Z,80.50
2022-10-02T16:02:00.248Z,80.91
2022-10-02T16:04:35.415Z,81.00
2022-10-02T16:07:39.888Z,80.55
2022-10-02T16:10:20.223Z,80.75
2022-10-02T16:13:18.382Z,81.36
2022-10-02T16:15:52.875Z,81.20
2022-10-02T16:18:32.771Z,80.90
2022-10-02T16:21:27.042Z,81.38
2022-10-02T16:24:33.931Z,81.89
2022-10-02T16:27:21.981Z,81.78
2022-10-02T16:30:03.110Z,81.19
2022-10-02T16:32:39.667Z,80.92
2022-10-02T16:35:26.006Z,80.59
2022-10-02T16:38:00.902Z,79.39
2022-10-02T16:40:40.343Z,77.74
2022-10-02T16:43:45.221Z,76.28
2022-10-02T16:46:17.364Z,75.50
2022-10-02T16:48:53.011Z,74.38
2022-10-02T16:51:36.784Z,75.10
2022-10-02T16:54:16.246Z,75.51
2022-10-02T16:56:50.934Z,75.45
2022-10-02T16:59:26.476Z,75.24
2022-10-02T17:02:17.121Z,76.01
2022-10-02T17:04:58.943Z,76.52
2022-10-02T17:07:34.893Z,76.90
2022-10-02T17:10:19.025Z,77.46
2022-10-02T17:12:53.461Z,78.23
2022-10-02T17:15:26.643Z,78.83
2022-10-02T17:18:18.200Z,79.45
2022-10-02T17:20:51.453Z,79.64
2022-10-02T17:23:27.745Z,80.39
2022-10-02T17:26:03.566Z,81.21
2022-10-02T17:28:39.059Z,81.32
2022-10-02T17:31:47.655Z,81.56
2022-10-02T17:34:24.242Z,81.67
2022-10-02T17:37:34.427Z,82.57
2022-10-02T17:40:10.876Z,83.58
2022-10-02T17:42:51.833Z,84.54
2022-10-02T17:45:30.429Z,84.60
2022-10-02T17:48:15.475Z,85.07
2022-10-02T17:50:57.973Z,84.47
2022-10-02T17:53:57.380Z,84.60
2022-10-02T17:56:52.067Z,84.70
2022-10-02T17:59:40.652Z,85.22
2022-10-02T18:02:23.431Z,85.41
2022-10-02T18:05:13.905Z,85.86
2022-10-02T18:07:59.785Z,86.34
2022-10-02T18:10:35.423Z,86.80
2022-10-02T18:13:25.874Z,86.94
2022-10-02T18:16:15.860Z,86.60
2022-10-02T18:19:03.606Z,87.37
2022-10-02T18:21:40.280Z,87.66
2022-10-02T18:24:39.580Z,87.90
2022-10-02T18:27:32.686Z,87.76
2022-10-02T18:30:08.696Z,88.16
2022-10-02T18:32:56.769Z,88.60
2022-10-02T18:35:32.199Z,88.94
2022-10-02T18:38:22.219Z,89.63
2022-10-02T18:40:55.917Z,89.94
2022-10-02T18:43:41.319Z,89.97
2022-10-02T18:46:27.038Z,89.99
2022-10-02T18:49:11.430Z,90.39
2022-10-02T18:51:59.600Z,91.01
2022-10-02T18:54:40.667Z,91.27
2022-10-02T18:57:25.382Z,91.48
2022-10-02T19:00:03.448Z,92.13
2022-10-02T19:02:46.404Z,92.35
2022-10-02T19:05:25.671Z,92.34
2022-10-02T19:08:08.158Z,92.65
2022-10-02T19:10:46.533Z,93.11
2022-10-02T19:13:21.980Z,93.18
2022-10-02T19:15:52.252Z,93.52
2022-10-02T19:18:22.027Z,93.58
2022-10-02T19:20:57.508Z,93.80
2022-10-02T19:23:32.408Z,93.81
2022-10-02T19:26:06.847Z,93.80
2022-10-02T19:28:45.385Z,94.17
2022-10-02T19:31:14.161Z,94.40
2022-10-02T19:33:51.039Z,94.41
2022-10-02T19:36:22.096Z,94.59
2022-10-02T19:38:56.556Z,95.05
2022-10-02T19:41:26.641Z,95.18
2022-10-02T19:43:57.951Z,94.96
2022-10-02T19:46:33.765Z,95.39
2022-10-02T19:49:02.393Z,95.35
2022-10-02T19:51:30.063Z,95.61
2022-10-02T19:54:02.711Z,95.93
2022-10-02T19:56:42.272Z,95.89
2022-10-02T19:59:17.200Z,96.36
2022-10-02T20:01:51.551Z,96.32
2022-10-02T20:04:21.861Z,96.57
2022-10-02T20:06:54.332Z,96.57
2022-10-02T20:09:29.263Z,96.47
2022-10-02T20:12:04.619Z,96.63
2022-10-02T20:14:39.810Z,96.91
2022-10-02T20:17:09.475Z,97.14
2022-10-02T20:19:41.561Z,97.17
2022-10-02T20:22:17.506Z,97.38
2022-10-02T20:24:52.194Z,97.29
2022-10-02T20:27:25.463Z,97.63
2022-10-02T20:30:00.453Z,97.79
2022-10-02T20:32:32.692Z,97.97
2022-10-02T20:35:05.026Z,98.04
2022-10-02T20:37:35.544Z,98.54
2022-10-02T20:40:11.509Z,98.84
2022-10-02T20:42:47.454Z,98.72
2022-10-02T20:45:16.044Z,98.93
2022-10-02T20:48:21.310Z,99.23
2022-10-02T20:50:58.815Z,99.35
2022-10-02T20:54:15.974Z,99.68
2022-10-02T20:57:01.951Z,99.69
2022-10-02T21:00:06.913Z,99.78
2022-10-02T21:03:06.680Z,100.00
2022-10-02T21:06:04.520Z,100.00
2022-10-02T21:09:13.429Z,100.00
2022-10-02T21:12:00.826Z,100.00
2022-10-02T21:14:56.601Z,100.00
2022-10-02T21:17:52.255Z,100.00
2022-10-02T21:20:51.783Z,100.00
2022-10-02T21:23:53.882Z,100.00
2022-10-02T21:26:48.677Z,100.00
2022-10-02T21:29:48.284Z,100.00
2022-10-02T21:32:51.432Z,100.00
2022-10-02T21:35:48.126Z,100.00
2022-10-02T21:38:58.145Z,100.00
2022-10-02T21:41:59.382Z,100.00
2022-10-02T21:45:07.286Z,100.00
2022-10-02T21:47:55.002Z,100.00
2022-10-02T21:50:58.322Z,100.00
2022-10-02T21:54:00.483Z,100.00
2022-10-02T21:56:57.123Z,100.00
2022-10-02T22:00:18.988Z,100.00
2022-10-02T22:03:28.039Z,100.00
2022-10-02T22:06:12.464Z,100.00
2022-10-02T22:08:56.450Z,100.00
2022-10-02T22:11:36.222Z,100.00
2022-10-02T22:14:09.876Z,100.00
2022-10-02T22:16:55.063Z,100.00
2022-10-02T22:19:37.332Z,100.00
2022-10-02T22:22:17.927Z,100.00
2022-10-02T22:24:58.298Z,100.00
2022-10-02T22:27:46.460Z,100.00
2022-10-02T22:30:25.152Z,100.00
2022-10-02T22:33:14.204Z,100.00
2022-10-02T22:36:02.144Z,100.00
2022-10-02T22:38:34.886Z,100.00
2022-10-02T22:41:07.702Z,100.00
2022-10-02T22:43:45.161Z,100.00
2022-10-02T22:46:23.725Z,100.00
2022-10-02T22:48:59.631Z,100.00
2022-10-02T22:51:36.293Z,100.00
2022-10-02T22:54:17.244Z,100.00
2022-10-02T22:56:54.451Z,100.00
2022-10-02T22:59:26.134Z,100.00
2022-10-02T23:02:00.244Z,100.00
2022-10-02T23:04:33.928Z,100.00
2022-10-02T23:07:07.896Z,100.00
2022-10-02T23:09:45.064Z,100.00
2022-10-02T23:12:17.885Z,100.00
2022-10-02T23:15:00.367Z,100.00
2022-10-02T23:17:33.895Z,100.00
2022-10-02T23:20:07.906Z,100.00
2022-10-02T23:22:39.839Z,100.00
2022-10-02T23:25:20.847Z,100.00
2022-10-02T23:27:57.652Z,100.00
2022-10-02T23:30:26.086Z,100.00
2022-10-02T23:32:58.509Z,100.00
2022-10-02T23:35:32.371Z,100.00
2022-10-02T23:38:08.438Z,100.00
2022-10-02T23:41:17.532Z,100.00
2022-10-02T23:43:53.551Z,100.00
2022-10-02T23:46:29.827Z,100.00
2022-10-02T23:48:57.864Z,100.00
2022-10-02T23:51:37.080Z,100.00
2022-10-02T23:54:23.322Z,100.00
2022-10-02T23:57:09.694Z,100.00
